Time;durP1;ratioP1;P1;durP2;ratioP2;P2;SDS_P1;SDS_P2;PMS_P1;PMS_P2;Temp;Humidity;BMP_temperature;BMP_pressure;BME280_temperature;BME280_humidity;BME280_pressure;Samples;Min_cycle;Max_cycle;Signal;HPM_P1;HPM_P2
2024/04/10 00:01:27;;;;;;;7.47;1.90;;;;;;;6.30;100.00;101616.69;5465949;26;20002;-73
2024/04/10 00:03:52;;;;;;;5.38;1.70;;;;;;;6.32;100.00;101609.81;5456277;26;20001;-73
2024/04/10 00:06:18;;;;;;;6.82;1.70;;;;;;;6.26;100.00;101617.13;5511172;26;20035;-73
2024/04/10 00:08:43;;;;;;;5.65;1.60;;;;;;;6.31;100.00;101615.59;5476155;26;20013;-73
2024/04/10 00:11:09;;;;;;;8.30;1.60;;;;;;;6.30;100.00;101606.50;5526254;26;20465;-73
2024/04/10 00:13:35;;;;;;;6.75;1.52;;;;;;;6.22;100.00;101613.19;5524422;26;20009;-73
2024/04/10 00:16:01;;;;;;;6.05;1.73;;;;;;;6.26;100.00;101622.66;5496559;26;20039;-73
2024/04/10 00:18:27;;;;;;;5.38;1.50;;;;;;;6.23;100.00;101625.91;5493468;26;20002;-73
2024/04/10 00:20:53;;;;;;;5.40;1.75;;;;;;;6.22;100.00;101621.47;5496356;26;20005;-73
2024/04/10 00:23:18;;;;;;;3.25;1.60;;;;;;;6.14;100.00;101630.09;5524774;26;20042;-73
2024/04/10 00:25:53;;;;;;;7.18;1.80;;;;;;;6.16;100.00;101627.09;5463213;26;20642;-73
2024/04/10 00:28:19;;;;;;;5.50;1.42;;;;;;;6.15;100.00;101622.66;5524568;26;20016;-73
2024/04/10 00:30:45;;;;;;;6.47;1.50;;;;;;;6.09;100.00;101618.09;5461825;26;20001;-73
2024/04/10 00:33:10;;;;;;;7.30;2.05;;;;;;;6.10;100.00;101623.38;5465166;26;20022;-73
2024/04/10 00:35:36;;;;;;;4.68;1.38;;;;;;;6.04;100.00;101629.81;5462256;26;20006;-73
2024/04/10 00:38:01;;;;;;;7.90;1.45;;;;;;;6.04;100.00;101622.41;5471878;26;20002;-73
2024/04/10 00:40:26;;;;;;;6.85;2.00;;;;;;;6.02;100.00;101621.81;5465304;26;20415;-73
2024/04/10 00:42:52;;;;;;;5.95;1.77;;;;;;;5.98;100.00;101620.56;5472597;26;20041;-73
2024/04/10 00:45:18;;;;;;;6.82;1.70;;;;;;;5.98;100.00;101622.50;5465273;26;20361;-73
2024/04/10 00:47:43;;;;;;;3.38;1.15;;;;;;;5.96;100.00;101620.00;5443159;26;19999;-73
2024/04/10 00:50:09;;;;;;;4.35;1.25;;;;;;;5.96;100.00;101611.72;5420085;26;20457;-73
2024/04/10 00:52:34;;;;;;;6.65;2.00;;;;;;;5.93;100.00;101627.84;5430350;26;20347;-73
2024/04/10 00:55:00;;;;;;;7.95;1.75;;;;;;;5.92;100.00;101621.50;5454445;26;20003;-73
2024/04/10 00:57:25;;;;;;;6.68;1.50;;;;;;;5.90;100.00;101622.81;5398102;26;20009;-72
2024/04/10 00:59:51;;;;;;;4.97;1.40;;;;;;;5.89;100.00;101623.91;5422680;26;20003;-73
2024/04/10 01:02:16;;;;;;;9.10;1.83;;;;;;;5.81;100.00;101617.63;5451371;26;20022;-73
2024/04/10 01:04:42;;;;;;;5.28;1.65;;;;;;;5.82;100.00;101623.97;5449409;26;20006;-73
2024/04/10 01:07:09;;;;;;;6.10;1.52;;;;;;;5.79;100.00;101621.69;5488332;26;20001;-73
2024/04/10 01:09:34;;;;;;;5.15;1.73;;;;;;;5.80;100.00;101628.91;5427823;26;20043;-73
2024/04/10 01:11:59;;;;;;;4.07;1.60;;;;;;;5.77;100.00;101645.91;5456427;26;20006;-73
2024/04/10 01:14:25;;;;;;;7.10;1.40;;;;;;;5.78;100.00;101640.16;5454988;26;19997;-73
2024/04/10 01:16:50;;;;;;;5.32;1.45;;;;;;;5.75;100.00;101640.63;5455459;26;20002;-73
2024/04/10 01:19:16;;;;;;;6.70;1.73;;;;;;;5.74;100.00;101638.97;5423172;26;20087;-73
2024/04/10 01:21:41;;;;;;;5.72;1.63;;;;;;;5.73;100.00;101647.44;5452844;26;20003;-73
2024/04/10 01:24:07;;;;;;;5.18;1.58;;;;;;;5.67;100.00;101645.63;5435151;26;20010;-73
2024/04/10 01:26:32;;;;;;;8.00;1.73;;;;;;;5.67;100.00;101651.16;5462404;26;20529;-73
2024/04/10 01:28:58;;;;;;;6.30;1.50;;;;;;;5.60;100.00;101649.31;5444325;26;20431;-73
2024/04/10 01:31:26;;;;;;;5.32;1.30;;;;;;;5.60;100.00;101654.84;5417226;26;20013;-73
2024/04/10 01:33:52;;;;;;;3.97;1.48;;;;;;;5.63;100.00;101647.16;5438144;26;20008;-73
2024/04/10 01:36:17;;;;;;;9.25;1.63;;;;;;;5.60;100.00;101652.09;5447432;26;20003;-73
2024/04/10 01:38:44;;;;;;;4.20;1.08;;;;;;;5.59;100.00;101658.66;5511737;26;20005;-73
2024/04/10 01:41:10;;;;;;;6.65;1.70;;;;;;;5.55;100.00;101656.63;5493439;26;20016;-72
2024/04/10 01:43:35;;;;;;;4.75;1.40;;;;;;;5.54;100.00;101649.41;5525460;26;20048;-73
2024/04/10 01:46:01;;;;;;;7.80;1.88;;;;;;;5.49;100.00;101661.13;5523851;26;20514;-73
2024/04/10 01:48:26;;;;;;;5.55;1.58;;;;;;;5.52;100.00;101659.84;5493092;26;20024;-73
2024/04/10 01:50:52;;;;;;;6.28;1.20;;;;;;;5.51;100.00;101666.41;5462567;26;20005;-73
2024/04/10 01:53:17;;;;;;;7.13;1.88;;;;;;;5.51;100.00;101667.25;5477885;26;20002;-73
2024/04/10 01:55:43;;;;;;;5.57;1.67;;;;;;;5.43;100.00;101673.06;5459874;26;20043;-73
2024/04/10 01:58:08;;;;;;;3.30;1.17;;;;;;;5.43;100.00;101673.06;5466875;26;20426;-73
2024/04/10 02:00:37;;;;;;;5.13;1.35;;;;;;;5.42;100.00;101668.63;5454676;26;19997;-73
2024/04/10 02:03:03;;;;;;;6.20;1.42;;;;;;;5.41;100.00;101666.97;5463922;26;19998;-72
2024/04/10 02:05:28;;;;;;;4.28;1.45;;;;;;;5.40;100.00;101669.94;5490307;26;20383;-73
2024/04/10 02:07:54;;;;;;;4.43;1.40;;;;;;;5.35;100.00;101681.66;5503955;26;20058;-73
2024/04/10 02:10:21;;;;;;;8.13;1.73;;;;;;;5.33;100.00;101683.81;5456357;26;19997;-73
2024/04/10 02:12:46;;;;;;;6.80;1.77;;;;;;;5.31;100.00;101680.44;5494543;26;20009;-73
2024/04/10 02:15:12;;;;;;;5.13;1.27;;;;;;;5.29;100.00;101677.06;5524039;26;20001;-73
2024/04/10 02:17:37;;;;;;;7.25;1.60;;;;;;;5.27;100.00;101682.81;5492974;26;20005;-73
2024/04/10 02:20:05;;;;;;;5.40;1.38;;;;;;;5.25;100.00;101675.84;5524138;26;20377;-73
2024/04/10 02:22:31;;;;;;;5.00;1.42;;;;;;;5.27;100.00;101679.22;5465364;26;20069;-73
2024/04/10 02:24:56;;;;;;;7.75;1.45;;;;;;;5.24;100.00;101675.03;5524394;26;20045;-73
2024/04/10 02:27:22;;;;;;;6.25;1.27;;;;;;;5.22;100.00;101674.41;5464075;26;20330;-73
2024/04/10 02:29:47;;;;;;;4.28;1.30;;;;;;;5.21;100.00;101678.22;5463346;26;20464;-73
2024/04/10 02:32:13;;;;;;;8.82;1.27;;;;;;;5.22;100.00;101690.09;5492063;26;20006;-73
2024/04/10 02:34:38;;;;;;;6.50;1.48;;;;;;;5.23;100.00;101689.00;5491244;26;20008;-73
2024/04/10 02:37:04;;;;;;;3.42;1.15;;;;;;;5.22;100.00;101681.81;5443657;26;20021;-73
2024/04/10 02:39:29;;;;;;;2.80;1.00;;;;;;;5.22;100.00;101673.56;5522355;26;20016;-73
2024/04/10 02:41:55;;;;;;;5.43;1.33;;;;;;;5.21;100.00;101674.59;5524496;26;19997;-73
2024/04/10 02:44:20;;;;;;;4.03;1.20;;;;;;;5.25;100.00;101664.84;5463921;26;20005;-73
2024/04/10 02:46:46;;;;;;;7.90;1.85;;;;;;;5.25;100.00;101664.84;5494889;26;20002;-73
2024/04/10 02:49:12;;;;;;;4.57;1.27;;;;;;;5.25;100.00;101653.81;5463806;26;20017;-73
2024/04/10 02:51:37;;;;;;;3.75;1.30;;;;;;;5.24;100.00;101652.97;5494461;26;20438;-73
2024/04/10 02:54:03;;;;;;;7.22;1.83;;;;;;;5.32;100.00;101663.69;5459461;26;20006;-73
2024/04/10 02:56:29;;;;;;;4.90;1.63;;;;;;;5.32;100.00;101660.06;5452657;26;20013;-73
2024/04/10 02:58:55;;;;;;;3.00;1.23;;;;;;;5.30;100.00;101659.47;5429816;26;20001;-73
2024/04/10 03:01:20;;;;;;;8.88;1.25;;;;;;;5.31;100.00;101659.22;5488040;26;20694;-73
2024/04/10 03:03:46;;;;;;;4.75;1.23;;;;;;;5.28;100.00;101667.97;5483489;26;20029;-73
2024/04/10 03:06:12;;;;;;;3.78;1.20;;;;;;;5.24;100.00;101664.00;5467937;26;20010;-73
2024/04/10 03:08:37;;;;;;;6.68;1.45;;;;;;;5.24;100.00;101668.66;5439914;26;20002;-73
2024/04/10 03:11:05;;;;;;;7.20;1.40;;;;;;;5.22;100.00;101670.81;5462847;26;20449;-73
2024/04/10 03:13:32;;;;;;;9.93;1.75;;;;;;;5.20;100.00;101672.94;5461822;26;20037;-73
2024/04/10 03:15:57;;;;;;;7.55;1.10;;;;;;;5.18;100.00;101670.41;5493849;26;20016;-72
2024/04/10 03:18:22;;;;;;;3.83;1.23;;;;;;;5.17;100.00;101667.91;5493136;26;20002;-73
2024/04/10 03:20:48;;;;;;;7.93;1.38;;;;;;;5.17;100.00;101673.41;5463171;26;20046;-73
2024/04/10 03:23:13;;;;;;;4.63;1.23;;;;;;;5.15;100.00;101663.47;5490570;26;20117;-73
2024/04/10 03:25:39;;;;;;;4.97;1.42;;;;;;;5.13;100.00;101670.28;5463073;26;20005;-73
2024/04/10 03:28:05;;;;;;;6.05;1.27;;;;;;;5.16;100.00;101675.31;5491201;26;20017;-73
2024/04/10 03:30:32;;;;;;;5.78;1.50;;;;;;;5.10;100.00;101668.81;5497254;26;20009;-73
2024/04/10 03:32:57;;;;;;;6.70;1.60;;;;;;;5.11;100.00;101672.41;5493675;26;20001;-73
2024/04/10 03:35:24;;;;;;;4.38;1.10;;;;;;;5.08;100.00;101673.72;5493827;26;20016;-73
2024/04/10 03:37:50;;;;;;;5.90;1.58;;;;;;;5.05;100.00;101673.34;5494685;26;20026;-72
2024/04/10 03:40:16;;;;;;;6.47;1.55;;;;;;;5.06;100.00;101673.09;5467105;26;20334;-73
2024/04/10 03:42:42;;;;;;;7.00;1.23;;;;;;;5.04;100.00;101663.38;5465264;26;20333;-73
2024/04/10 03:45:08;;;;;;;5.80;1.55;;;;;;;5.03;100.00;101669.97;5466526;26;20002;-73
2024/04/10 03:47:33;;;;;;;4.07;1.30;;;;;;;5.04;100.00;101675.25;5466053;26;20660;-73
2024/04/10 03:49:59;;;;;;;7.28;1.33;;;;;;;5.01;100.00;101672.94;5466198;26;19997;-73
2024/04/10 03:52:24;;;;;;;5.97;1.20;;;;;;;4.98;100.00;101681.66;5464205;26;20005;-73
2024/04/10 03:54:50;;;;;;;6.32;1.20;;;;;;;5.00;100.00;101695.19;5473094;26;20621;-73
2024/04/10 03:57:16;;;;;;;4.55;1.45;;;;;;;5.00;100.00;101693.28;5454355;26;19998;-73
2024/04/10 03:59:42;;;;;;;3.50;1.45;;;;;;;4.98;100.00;101692.66;5479333;26;20490;-73
2024/04/10 04:02:07;;;;;;;5.05;1.20;;;;;;;5.00;100.00;101698.78;5464864;26;20454;-73
2024/04/10 04:04:33;;;;;;;7.93;1.65;;;;;;;4.98;100.00;101692.66;5477156;26;20010;-73
2024/04/10 04:06:58;;;;;;;6.47;1.52;;;;;;;5.00;100.00;101692.44;5477764;26;19997;-73
2024/04/10 04:09:23;;;;;;;9.45;1.50;;;;;;;4.99;100.00;101699.88;5486110;26;19998;-73
2024/04/10 04:11:49;;;;;;;7.20;1.42;;;;;;;4.97;100.00;101699.25;5485580;26;20041;-74
2024/04/10 04:14:14;;;;;;;5.07;1.17;;;;;;;4.99;100.00;101704.53;5465249;26;20014;-73
2024/04/10 04:16:40;;;;;;;7.28;1.20;;;;;;;4.98;100.00;101708.34;5494933;26;20008;-73
2024/04/10 04:19:05;;;;;;;6.85;1.60;;;;;;;4.95;100.00;101714.31;5466293;26;19994;-73
2024/04/10 04:21:31;;;;;;;7.20;1.52;;;;;;;4.91;100.00;101714.75;5525711;26;20015;-73
2024/04/10 04:24:00;;;;;;;7.63;1.48;;;;;;;4.97;100.00;101702.00;5496038;26;20029;-73
2024/04/10 04:26:25;;;;;;;5.88;1.45;;;;;;;4.96;100.00;101691.19;5494700;26;20002;-72
2024/04/10 04:28:51;;;;;;;8.50;1.95;;;;;;;4.97;100.00;101688.22;5465656;26;20031;-73
2024/04/10 04:31:17;;;;;;;9.32;2.08;;;;;;;4.98;100.00;101680.81;5492426;26;20046;-73
2024/04/10 04:33:43;;;;;;;5.72;1.50;;;;;;;4.95;100.00;101693.13;5435519;26;20037;-73
2024/04/10 04:36:10;;;;;;;6.95;1.30;;;;;;;4.96;100.00;101692.06;5491704;26;20021;-73
2024/04/10 04:38:36;;;;;;;3.40;1.27;;;;;;;4.92;100.00;101693.56;5465946;26;20025;-73
2024/04/10 04:41:02;;;;;;;6.35;1.63;;;;;;;4.97;100.00;101687.41;5491345;26;20017;-73
2024/04/10 04:43:27;;;;;;;8.50;1.55;;;;;;;4.93;100.00;101695.25;5526957;26;20012;-73
2024/04/10 04:45:53;;;;;;;5.03;1.10;;;;;;;4.95;100.00;101695.88;5464000;26;20001;-73
2024/04/10 04:48:18;;;;;;;5.22;1.25;;;;;;;4.97;100.00;101685.47;5526294;26;20053;-73
2024/04/10 04:50:44;;;;;;;6.13;1.27;;;;;;;4.96;100.00;101686.56;5525270;26;20013;-73
2024/04/10 04:53:12;;;;;;;7.15;1.50;;;;;;;4.95;100.00;101693.13;5463702;26;20349;-73
2024/04/10 04:55:39;;;;;;;6.35;1.40;;;;;;;4.97;100.00;101696.50;5473871;26;20018;-73
2024/04/10 04:58:04;;;;;;;6.10;1.33;;;;;;;4.98;100.00;101703.66;5463391;26;20027;-73
2024/04/10 05:00:31;;;;;;;6.20;1.30;;;;;;;4.99;100.00;101712.81;5489592;26;20041;-73
2024/04/10 05:02:57;;;;;;;5.63;1.50;;;;;;;5.01;100.00;101728.00;5454171;26;20001;-73
2024/04/10 05:05:22;;;;;;;5.40;1.63;;;;;;;5.01;100.00;101735.41;5428916;26;20041;-73
2024/04/10 05:07:48;;;;;;;5.60;1.48;;;;;;;4.99;100.00;101738.41;5459631;26;19999;-73
2024/04/10 05:10:14;;;;;;;9.55;2.05;;;;;;;5.00;100.00;101733.75;5485114;26;20017;-72
2024/04/10 05:12:41;;;;;;;5.55;1.50;;;;;;;4.98;100.00;101733.97;5464891;26;20074;-73
2024/04/10 05:15:07;;;;;;;8.13;1.50;;;;;;;5.00;100.00;101733.75;5493403;26;20013;-73
2024/04/10 05:17:33;;;;;;;5.47;1.25;;;;;;;4.98;100.00;101739.47;5465262;26;20001;-73
2024/04/10 05:19:58;;;;;;;6.22;1.27;;;;;;;5.00;100.00;101745.59;5494207;26;20060;-73
2024/04/10 05:22:24;;;;;;;5.50;1.38;;;;;;;5.00;100.00;101747.50;5434701;26;20029;-73
2024/04/10 05:24:49;;;;;;;7.13;1.58;;;;;;;5.01;100.00;101747.25;5493878;26;19997;-73
2024/04/10 05:27:23;;;;;;;4.97;1.10;;;;;;;5.01;100.00;101752.78;5451193;26;20038;-73
2024/04/10 05:29:59;;;;;;;6.97;1.65;;;;;;;5.03;100.00;101747.88;5460281;26;20043;-73
2024/04/10 05:32:28;;;;;;;6.75;1.50;;;;;;;5.03;100.00;101753.41;5459877;26;20009;-73
2024/04/10 05:34:54;;;;;;;3.88;1.20;;;;;;;5.04;100.00;101759.75;5463343;26;20041;-73
2024/04/10 05:37:20;;;;;;;6.63;1.15;;;;;;;5.00;100.00;101761.28;5462330;26;20005;-73
2024/04/10 05:40:06;;;;;;;5.22;1.23;;;;;;;5.04;100.00;101765.25;5464837;26;20077;-73
2024/04/10 05:42:38;;;;;;;7.50;1.70;;;;;;;5.04;100.00;101773.50;5497673;26;20001;-73
2024/04/10 05:45:05;;;;;;;8.63;1.88;;;;;;;5.08;100.00;101770.09;5495970;26;20017;-73
2024/04/10 05:47:31;;;;;;;5.22;1.90;;;;;;;5.08;100.00;101764.56;5434344;26;20057;-73
2024/04/10 05:49:56;;;;;;;4.57;1.85;;;;;;;5.08;100.00;101763.75;5494429;26;20005;-73
2024/04/10 05:52:22;;;;;;;8.32;1.63;;;;;;;5.14;100.00;101763.66;5449925;26;20007;-73
2024/04/10 05:54:49;;;;;;;4.38;1.38;;;;;;;5.18;100.00;101760.44;5477315;26;19998;-73
2024/04/10 05:57:15;;;;;;;8.23;1.55;;;;;;;5.21;100.00;101758.09;5459340;26;19998;-73
2024/04/10 05:59:40;;;;;;;5.57;1.60;;;;;;;5.28;100.00;101760.78;5507376;26;20007;-73
2024/04/10 06:02:06;;;;;;;7.22;1.40;;;;;;;5.35;100.00;101765.16;5461905;26;20013;-73
2024/04/10 06:04:31;;;;;;;5.38;2.20;;;;;;;5.43;100.00;101760.41;5449076;26;20002;-73
2024/04/10 06:06:57;;;;;;;6.50;1.50;;;;;;;5.53;100.00;101771.72;5487206;26;20008;-73
2024/04/10 06:09:22;;;;;;;8.98;1.73;;;;;;;5.61;100.00;101776.94;5477782;26;19993;-73
2024/04/10 06:11:48;;;;;;;6.65;1.25;;;;;;;5.73;100.00;101766.81;5493403;26;20001;-73
2024/04/10 06:14:13;;;;;;;5.68;1.70;;;;;;;5.84;100.00;101767.94;5494429;26;20050;-73
2024/04/10 06:16:39;;;;;;;7.57;1.90;;;;;;;5.98;100.00;101768.66;5463111;26;20041;-73
2024/04/10 06:19:04;;;;;;;9.60;1.88;;;;;;;6.12;100.00;101770.16;5494558;26;20008;-73
2024/04/10 06:21:30;;;;;;;7.97;1.63;;;;;;;6.26;100.00;101766.13;5522638;26;20477;-73
2024/04/10 06:23:55;;;;;;;8.00;1.67;;;;;;;6.43;100.00;101770.97;5464070;26;20009;-74
2024/04/10 06:26:20;;;;;;;7.97;1.70;;;;;;;6.64;100.00;101767.66;5462212;26;20025;-74
2024/04/10 06:28:46;;;;;;;8.82;1.63;;;;;;;6.80;100.00;101776.31;5494120;26;19998;-70
2024/04/10 06:31:13;;;;;;;12.80;2.25;;;;;;;6.99;100.00;101771.53;5499801;26;20056;-73
2024/04/10 06:33:38;;;;;;;9.68;1.77;;;;;;;7.15;100.00;101768.91;5494190;26;20003;-73
2024/04/10 06:36:04;;;;;;;11.20;2.20;;;;;;;7.31;100.00;101767.34;5459414;26;20045;-74
2024/04/10 06:38:33;;;;;;;9.45;2.25;;;;;;;7.52;100.00;101776.06;5524665;26;20012;-73
2024/04/10 06:41:00;;;;;;;7.95;1.65;;;;;;;7.64;100.00;101771.38;5428511;26;20066;-73
2024/04/10 06:43:26;;;;;;;9.18;1.65;;;;;;;7.82;100.00;101773.13;5493884;26;20001;-73
2024/04/10 06:45:58;;;;;;;8.57;2.00;;;;;;;7.97;100.00;101775.41;5461283;26;20016;-74
2024/04/10 06:48:24;;;;;;;15.38;1.65;;;;;;;8.07;100.00;101776.41;5431513;26;20462;-74
2024/04/10 06:50:54;;;;;;;7.88;1.75;;;;;;;8.21;100.00;101782.50;5460797;26;20064;-74
2024/04/10 06:53:19;;;;;;;10.35;1.98;;;;;;;8.37;100.00;101780.03;5493217;26;19997;-73
2024/04/10 06:55:57;;;;;;;13.95;2.58;;;;;;;8.53;100.00;101790.34;5450704;26;20038;-73
2024/04/10 06:58:23;;;;;;;9.32;1.38;;;;;;;8.64;100.00;101791.34;5423812;26;20015;-74
2024/04/10 07:01:08;;;;;;;12.80;1.80;;;;;;;8.81;100.00;101792.22;5444919;26;20002;-74
2024/04/10 07:03:37;;;;;;;11.23;2.00;;;;;;;8.94;100.00;101797.41;5486855;26;20382;-73
2024/04/10 07:06:13;;;;;;;9.80;1.92;;;;;;;9.03;100.00;101797.84;5429528;26;19997;-73
2024/04/10 07:08:43;;;;;;;15.75;2.20;;;;;;;9.15;100.00;101801.34;5477472;26;20013;-73
2024/04/10 07:11:11;;;;;;;12.52;1.88;;;;;;;9.20;100.00;101800.59;5467711;26;20017;-73
2024/04/10 07:13:37;;;;;;;13.82;2.13;;;;;;;9.32;100.00;101808.81;5466593;26;20001;-73
2024/04/10 07:16:03;;;;;;;13.75;2.03;;;;;;;9.36;100.00;101808.06;5497256;26;20434;-73
2024/04/10 07:18:29;;;;;;;10.82;1.73;;;;;;;9.42;100.00;101808.97;5496141;26;20005;-73
2024/04/10 07:21:01;;;;;;;10.35;2.15;;;;;;;9.46;100.00;101807.34;5466645;26;20002;-74
2024/04/10 07:23:27;;;;;;;12.85;2.47;;;;;;;9.50;100.00;101803.00;5525727;26;20013;-74
2024/04/10 07:25:52;;;;;;;13.02;2.45;;;;;;;9.51;100.00;101801.06;5496034;26;20020;-74
2024/04/10 07:28:18;;;;;;;14.45;2.83;;;;;;;9.52;100.00;101792.47;5452189;26;20011;-73
2024/04/10 07:30:48;;;;;;;8.10;1.40;;;;;;;9.56;100.00;101799.19;5454976;26;19999;-73
2024/04/10 07:33:14;;;;;;;11.38;1.90;;;;;;;9.55;100.00;101803.03;5435945;26;20012;-74
2024/04/10 07:35:39;;;;;;;10.73;2.10;;;;;;;9.58;100.00;101802.56;5461503;26;19997;-74
2024/04/10 07:38:05;;;;;;;12.50;1.85;;;;;;;9.61;100.00;101802.03;5494736;26;20005;-74
2024/04/10 07:40:31;;;;;;;10.48;1.90;;;;;;;9.68;100.00;101807.38;5494270;26;20030;-74
2024/04/10 07:42:56;;;;;;;8.30;1.90;;;;;;;9.70;100.00;101807.97;5436848;26;20005;-74
2024/04/10 07:45:22;;;;;;;9.10;1.60;;;;;;;9.75;100.00;101807.19;5524057;26;20012;-74
2024/04/10 07:47:48;;;;;;;7.13;1.63;;;;;;;9.85;100.00;101818.44;5466168;26;20006;-74
2024/04/10 07:50:13;;;;;;;11.75;2.28;;;;;;;9.91;100.00;101817.41;5494878;26;20017;-74
2024/04/10 07:52:39;;;;;;;8.27;1.50;;;;;;;10.00;100.00;101815.00;5496642;26;20460;-74
2024/04/10 07:55:05;;;;;;;12.68;1.90;;;;;;;10.03;100.00;101820.91;5495254;26;20456;-74
2024/04/10 07:57:31;;;;;;;8.18;1.38;;;;;;;10.15;100.00;101817.16;5455285;26;20018;-74
2024/04/10 07:59:56;;;;;;;9.40;2.00;;;;;;;10.22;100.00;101826.09;5440033;26;20077;-74
2024/04/10 08:02:23;;;;;;;7.70;1.85;;;;;;;10.32;100.00;101834.59;5526006;26;20002;-73
2024/04/10 08:04:48;;;;;;;11.57;1.80;;;;;;;10.43;100.00;101828.03;5508400;25;20002;-74
2024/04/10 08:07:14;;;;;;;9.45;1.77;;;;;;;10.50;100.00;101825.91;5474002;26;19999;-74
2024/04/10 08:09:39;;;;;;;9.77;2.13;;;;;;;10.58;100.00;101830.13;5440464;26;20004;-74
2024/04/10 08:12:05;;;;;;;11.95;1.85;;;;;;;10.68;100.00;101824.69;5524978;26;20072;-74
2024/04/10 08:14:31;;;;;;;12.75;2.50;;;;;;;10.76;100.00;101825.34;5473060;26;20434;-74
2024/04/10 08:16:56;;;;;;;12.80;2.08;;;;;;;10.89;100.00;101820.19;5492946;26;20689;-74
2024/04/10 08:19:22;;;;;;;10.43;2.00;;;;;;;10.94;100.00;101820.19;5496390;26;20149;-74
2024/04/10 08:21:48;;;;;;;11.35;2.05;;;;;;;11.00;100.00;101823.03;5495321;26;20012;-74
2024/04/10 08:24:13;;;;;;;10.35;2.00;;;;;;;11.06;100.00;101833.09;5465439;26;20002;-74
2024/04/10 08:26:40;;;;;;;14.27;2.53;;;;;;;11.12;100.00;101832.03;5450430;26;20003;-74
2024/04/10 08:29:09;;;;;;;16.52;2.10;;;;;;;11.18;100.00;101826.25;5466437;26;20005;-74
2024/04/10 08:31:34;;;;;;;11.23;2.88;;;;;;;11.23;100.00;101819.91;5491411;26;20034;-74
2024/04/10 08:34:00;;;;;;;9.75;2.08;;;;;;;11.29;100.00;101816.03;5524040;26;20001;-74
2024/04/10 08:36:27;;;;;;;16.50;2.28;;;;;;;11.34;100.00;101813.31;5494820;26;20006;-74
2024/04/10 08:38:53;;;;;;;14.20;2.33;;;;;;;11.43;100.00;101810.03;5495883;26;20009;-74
2024/04/10 08:41:21;;;;;;;14.20;2.33;;;;;;;11.50;100.00;101814.22;5502414;26;20509;-74
2024/04/10 08:43:48;;;;;;;18.40;2.45;;;;;;;11.57;100.00;101811.22;5495987;26;20055;-74
2024/04/10 08:46:21;;;;;;;16.88;3.05;;;;;;;11.63;100.00;101815.69;5465897;26;20009;-74
2024/04/10 08:48:50;;;;;;;14.93;2.40;;;;;;;11.66;100.00;101806.81;5464738;26;20748;-74
2024/04/10 08:51:16;;;;;;;12.20;2.47;;;;;;;11.75;100.00;101818.25;5526985;26;20046;-74
2024/04/10 08:53:43;;;;;;;10.73;2.20;;;;;;;11.79;100.00;101809.13;5494208;26;20002;-74
2024/04/10 08:56:09;;;;;;;17.75;2.88;;;;;;;11.87;100.00;101809.72;5495657;26;20478;-74
2024/04/10 08:58:35;;;;;;;13.20;1.92;;;;;;;11.94;100.00;101832.59;5466067;26;20010;-74
2024/04/10 09:01:01;;;;;;;12.25;1.95;;;;;;;11.99;100.00;101835.41;5491669;26;20002;-74
2024/04/10 09:03:26;;;;;;;13.32;2.05;;;;;;;12.04;100.00;101835.44;5444160;26;20001;-74
2024/04/10 09:05:51;;;;;;;8.88;1.83;;;;;;;12.13;100.00;101846.88;5506459;26;20054;-74
2024/04/10 09:08:17;;;;;;;14.57;3.00;;;;;;;12.21;100.00;101847.19;5470374;26;20002;-74
2024/04/10 09:10:42;;;;;;;8.68;1.90;;;;;;;12.29;100.00;101857.81;5525070;26;20102;-74
2024/04/10 09:13:09;;;;;;;11.82;2.05;;;;;;;12.40;100.00;101852.28;5455392;26;20007;-74
2024/04/10 09:15:36;;;;;;;14.98;2.65;;;;;;;12.53;100.00;101860.09;5435256;26;20025;-74
2024/04/10 09:18:02;;;;;;;14.63;2.38;;;;;;;12.66;100.00;101858.75;5509086;26;20043;-74
2024/04/10 09:20:27;;;;;;;14.23;2.20;;;;;;;12.81;100.00;101860.72;5526912;25;20005;-74
2024/04/10 09:23:05;;;;;;;11.07;1.95;;;;;;;12.97;100.00;101859.63;5523366;26;20016;-74
2024/04/10 09:25:31;;;;;;;13.88;2.28;;;;;;;13.11;100.00;101862.72;5435387;26;20014;-74
2024/04/10 09:28:02;;;;;;;15.00;2.53;;;;;;;13.27;100.00;101861.63;5462764;26;20020;-74
2024/04/10 09:30:28;;;;;;;13.27;2.03;;;;;;;13.45;100.00;101863.00;5474822;26;20014;-74
2024/04/10 09:32:54;;;;;;;13.20;2.10;;;;;;;13.59;100.00;101863.28;5485714;26;20021;-74
2024/04/10 09:35:24;;;;;;;15.00;2.78;;;;;;;13.73;100.00;101849.56;5491124;26;20012;-74
2024/04/10 09:37:50;;;;;;;18.80;2.58;;;;;;;13.89;100.00;101851.19;5493320;26;20046;-74
2024/04/10 09:40:17;;;;;;;13.38;2.15;;;;;;;14.02;100.00;101850.59;5452231;26;20006;-74
2024/04/10 09:42:45;;;;;;;13.73;2.15;;;;;;;14.13;100.00;101847.78;5487911;26;20001;-74
2024/04/10 09:45:17;;;;;;;13.55;2.28;;;;;;;14.27;100.00;101854.41;5494446;26;20026;-74
2024/04/10 09:47:43;;;;;;;12.45;2.30;;;;;;;14.38;100.00;101849.63;5493187;26;20008;-74
2024/04/10 09:50:10;;;;;;;11.27;1.95;;;;;;;14.46;100.00;101841.47;5493211;26;20474;-74
2024/04/10 09:52:35;;;;;;;11.80;2.00;;;;;;;14.64;100.00;101844.75;5493947;26;20014;-74
2024/04/10 09:55:01;;;;;;;18.85;2.53;;;;;;;14.75;100.00;101843.56;5465100;26;20001;-74
2024/04/10 09:57:27;;;;;;;18.45;3.17;;;;;;;14.93;100.00;101851.28;5454377;26;20021;-74
2024/04/10 09:59:53;;;;;;;16.88;2.00;;;;;;;15.10;100.00;101844.41;5427711;26;20064;-74
2024/04/10 10:02:19;;;;;;;13.95;2.38;;;;;;;15.29;100.00;101841.72;5470261;26;19994;-74
2024/04/10 10:04:44;;;;;;;16.88;2.30;;;;;;;15.44;100.00;101852.81;5506357;26;20009;-74
2024/04/10 10:07:10;;;;;;;18.85;2.58;;;;;;;15.59;100.00;101852.63;5457806;26;20033;-74
2024/04/10 10:09:36;;;;;;;12.60;1.75;;;;;;;15.73;100.00;101832.38;5481488;26;20362;-74
2024/04/10 10:12:01;;;;;;;22.55;2.78;;;;;;;15.90;100.00;101843.09;5494023;26;20365;-75
2024/04/10 10:14:27;;;;;;;17.48;2.38;;;;;;;16.04;100.00;101844.06;5463940;26;20012;-74
2024/04/10 10:17:03;;;;;;;14.35;1.92;;;;;;;16.17;100.00;101842.50;5463253;26;20077;-74
2024/04/10 10:19:32;;;;;;;12.25;1.90;;;;;;;16.31;100.00;101849.88;5453180;26;20023;-74
2024/04/10 10:22:01;;;;;;;15.57;1.58;;;;;;;16.40;100.00;101852.00;5459830;26;20348;-74
2024/04/10 10:24:29;;;;;;;13.23;1.90;;;;;;;16.51;100.00;101859.16;5444449;26;20012;-74
2024/04/10 10:27:01;;;;;;;13.20;1.85;;;;;;;16.63;100.00;101859.56;5495067;26;20016;-74
2024/04/10 10:29:27;;;;;;;12.82;1.95;;;;;;;16.76;100.00;101857.94;5462800;26;20003;-74
2024/04/10 10:32:05;;;;;;;16.48;1.98;;;;;;;16.90;100.00;101867.31;5523354;26;20354;-74
2024/04/10 10:34:31;;;;;;;16.88;2.25;;;;;;;17.01;100.00;101862.38;5490961;26;20020;-74
2024/04/10 10:37:06;;;;;;;16.30;2.42;;;;;;;17.15;100.00;101857.66;5525034;26;20448;-74
2024/04/10 10:39:40;;;;;;;16.42;2.13;;;;;;;17.29;100.00;101845.63;5423633;26;20013;-74
2024/04/10 10:42:06;;;;;;;16.17;1.90;;;;;;;17.39;100.00;101840.69;5473288;26;20012;-74
2024/04/10 10:44:32;;;;;;;8.63;1.63;;;;;;;17.49;100.00;101839.66;5524017;26;20029;-74
2024/04/10 10:46:58;;;;;;;9.98;1.80;;;;;;;17.60;100.00;101840.28;5406279;26;20787;-74
2024/04/10 10:49:25;;;;;;;11.23;2.45;;;;;;;17.72;100.00;101836.97;5493777;26;20450;-74
2024/04/10 10:51:55;;;;;;;10.23;1.70;;;;;;;17.80;100.00;101844.72;5431802;26;20013;-74
2024/04/10 10:54:21;;;;;;;9.63;1.75;;;;;;;17.92;97.48;101842.25;5494878;26;20475;-74
2024/04/10 10:56:46;;;;;;;11.13;2.08;;;;;;;18.03;99.75;101840.91;5433332;26;20002;-74
2024/04/10 10:59:14;;;;;;;11.50;2.20;;;;;;;18.12;96.91;101834.53;5468957;26;19998;-74
2024/04/10 11:01:42;;;;;;;11.98;2.45;;;;;;;18.20;95.83;101831.00;5523126;26;20012;-75
2024/04/10 11:04:14;;;;;;;11.88;1.80;;;;;;;18.34;94.40;101837.44;5466732;26;20002;-74
2024/04/10 11:06:39;;;;;;;10.90;1.88;;;;;;;18.41;92.52;101835.00;5445229;26;20018;-74
2024/04/10 11:09:12;;;;;;;11.57;1.85;;;;;;;18.49;94.30;101836.25;5458351;26;20048;-74
2024/04/10 11:11:38;;;;;;;14.93;2.38;;;;;;;18.56;93.57;101839.50;5493367;26;20005;-74
2024/04/10 11:14:03;;;;;;;12.60;1.88;;;;;;;18.65;92.99;101846.03;5500120;26;20384;-74
2024/04/10 11:16:32;;;;;;;12.15;1.98;;;;;;;18.73;91.01;101841.63;5453552;26;20136;-74